createdAt,value
2018-05-08T00:00:54.908Z,6.73
2018-05-08T00:02:55.845Z,7.20
2018-05-08T00:04:56.797Z,7.00
2018-05-08T00:06:58.137Z,7.30
2018-05-08T00:08:59.212Z,7.50
2018-05-08T00:11:01.175Z,6.47
2018-05-08T00:13:02.166Z,7.30
2018-05-08T00:15:03.484Z,7.30
2018-05-08T00:17:04.527Z,7.70
2018-05-08T00:19:06.359Z,6.73
2018-05-08T00:21:07.415Z,7.50
2018-05-08T00:23:09.703Z,7.30
2018-05-08T00:25:11.147Z,8.33
2018-05-08T00:27:12.482Z,8.10
2018-05-08T00:29:13.443Z,7.33
2018-05-08T00:31:14.398Z,6.70
2018-05-08T00:33:15.889Z,7.20
2018-05-08T00:35:17.210Z,7.00
2018-05-08T00:37:18.175Z,6.90
2018-05-08T00:39:19.223Z,7.90
2018-05-08T00:41:20.549Z,6.77
2018-05-08T00:43:21.729Z,7.00
2018-05-08T00:45:22.776Z,7.17
2018-05-08T00:47:23.759Z,7.20
2018-05-08T00:49:24.859Z,7.47
2018-05-08T00:51:26.246Z,7.60
2018-05-08T00:53:27.213Z,7.00
2018-05-08T00:55:28.174Z,7.10
2018-05-08T00:57:29.132Z,7.00
2018-05-08T00:59:30.111Z,7.03
2018-05-08T01:01:31.091Z,6.70
2018-05-08T01:03:32.040Z,6.97
2018-05-08T01:05:32.993Z,7.30
2018-05-08T01:07:34.335Z,7.67
2018-05-08T01:09:35.270Z,6.87
2018-05-08T01:11:36.282Z,7.00
2018-05-08T01:13:37.554Z,7.27
2018-05-08T01:15:38.878Z,7.40
2018-05-08T01:17:39.822Z,6.77
2018-05-08T01:19:41.040Z,6.80
2018-05-08T01:21:42.005Z,7.07
2018-05-08T01:23:43.315Z,7.10
2018-05-08T01:25:44.654Z,6.43
2018-05-08T01:27:45.597Z,8.10
2018-05-08T01:29:46.561Z,7.50
2018-05-08T01:31:47.885Z,7.90
2018-05-08T01:33:48.836Z,7.00
2018-05-08T01:35:50.157Z,7.30
2018-05-08T01:37:51.302Z,6.33
2018-05-08T01:39:52.244Z,6.80
2018-05-08T01:41:53.570Z,9.33
2018-05-08T01:43:54.547Z,7.60
2018-05-08T01:45:55.503Z,7.67
2018-05-08T01:47:56.449Z,7.00
2018-05-08T01:49:57.390Z,7.30
2018-05-08T01:51:58.327Z,7.63
2018-05-08T01:53:59.705Z,6.90
2018-05-08T01:56:01.035Z,7.30
2018-05-08T01:58:01.984Z,6.70
2018-05-08T02:00:03.336Z,7.37
2018-05-08T02:02:04.661Z,7.50
2018-05-08T02:04:05.626Z,7.60
2018-05-08T02:06:06.598Z,7.50
2018-05-08T02:08:07.594Z,7.97
2018-05-08T02:10:08.587Z,7.20
2018-05-08T02:12:09.883Z,7.53
2018-05-08T02:14:10.762Z,6.90
2018-05-08T02:16:11.709Z,6.63
2018-05-08T02:18:12.675Z,7.10
2018-05-08T02:20:13.633Z,7.50
2018-05-08T02:22:14.577Z,7.27
2018-05-08T02:24:15.718Z,7.20
2018-05-08T02:26:16.666Z,7.20
2018-05-08T02:28:17.610Z,7.30
2018-05-08T02:30:18.568Z,7.10
2018-05-08T02:32:19.896Z,8.17
2018-05-08T02:34:20.835Z,7.00
2018-05-08T02:36:22.185Z,6.87
2018-05-08T02:38:23.494Z,6.93
2018-05-08T02:40:24.446Z,7.27
2018-05-08T02:42:25.395Z,7.13
2018-05-08T02:44:26.714Z,7.23
2018-05-08T02:46:27.678Z,7.73
2018-05-08T02:48:28.654Z,6.50
2018-05-08T02:50:29.600Z,6.63
2018-05-08T02:52:30.549Z,6.93
2018-05-08T02:54:31.508Z,7.93
2018-05-08T02:56:32.827Z,7.90
2018-05-08T02:58:33.782Z,7.90
2018-05-08T03:00:35.203Z,7.23
2018-05-08T03:02:36.150Z,7.20
2018-05-08T03:04:37.107Z,7.03
2018-05-08T03:06:38.591Z,7.00
2018-05-08T03:08:39.559Z,6.80
2018-05-08T03:10:40.498Z,7.27
2018-05-08T03:12:41.469Z,7.30
2018-05-08T03:14:42.407Z,7.37
2018-05-08T03:16:43.362Z,7.50
2018-05-08T03:18:44.622Z,7.20
2018-05-08T03:20:45.569Z,6.87
2018-05-08T03:22:46.514Z,7.00
2018-05-08T03:24:47.462Z,7.13
2018-05-08T03:26:48.773Z,7.50
2018-05-08T03:28:49.706Z,7.60
2018-05-08T03:30:50.666Z,7.90
2018-05-08T03:32:53.627Z,7.70
2018-05-08T03:34:54.883Z,7.20
2018-05-08T03:36:56.293Z,6.90
2018-05-08T03:38:57.243Z,6.90
2018-05-08T03:40:58.183Z,7.50
2018-05-08T03:42:59.139Z,7.40
2018-05-08T03:45:00.437Z,7.20
2018-05-08T03:47:01.365Z,7.60
2018-05-08T03:49:02.458Z,7.20
2018-05-08T03:51:04.154Z,7.53
2018-05-08T03:53:05.100Z,8.40
2018-05-08T03:55:06.064Z,8.83
2018-05-08T03:57:08.269Z,8.37
2018-05-08T03:59:09.257Z,8.73
2018-05-08T04:01:22.637Z,7.70
2018-05-08T04:03:36.158Z,8.53
2018-05-08T04:29:57.661Z,7.30
2018-05-08T04:31:58.614Z,8.33
2018-05-08T04:33:59.933Z,8.80
2018-05-08T04:36:01.013Z,7.30
2018-05-08T04:38:01.955Z,7.70
2018-05-08T04:40:03.649Z,7.53
2018-05-08T04:42:04.598Z,7.37
2018-05-08T04:44:05.529Z,7.80
2018-05-08T04:46:06.477Z,7.30
2018-05-08T04:48:07.806Z,7.70
2018-05-08T04:50:08.774Z,7.70
2018-05-08T04:52:09.705Z,7.90
2018-05-08T04:54:10.678Z,8.63
2018-05-08T04:56:11.635Z,7.73
2018-05-08T04:58:12.601Z,8.00
2018-05-08T05:00:13.937Z,8.50
2018-05-08T05:02:15.243Z,8.13
2018-05-08T05:04:16.204Z,7.63
2018-05-08T05:06:17.663Z,8.00
2018-05-08T05:08:19.347Z,7.03
2018-05-08T05:10:20.302Z,7.40
2018-05-08T05:12:22.008Z,7.80
2018-05-08T05:14:23.699Z,7.10
2018-05-08T05:16:24.646Z,8.00
2018-05-08T05:18:25.621Z,8.00
2018-05-08T05:20:26.937Z,8.03
2018-05-08T05:22:27.884Z,8.30
2018-05-08T05:24:29.700Z,8.07
2018-05-08T05:26:30.994Z,7.37
2018-05-08T05:28:32.310Z,15.73
2018-05-08T05:30:33.266Z,7.67
2018-05-08T05:32:34.604Z,7.50
2018-05-08T05:34:36.215Z,7.60
2018-05-08T05:36:37.174Z,8.10
2018-05-08T05:38:38.135Z,8.23
2018-05-08T05:40:39.459Z,8.90
2018-05-08T05:42:40.463Z,7.30
2018-05-08T05:44:41.470Z,7.97
2018-05-08T05:46:43.117Z,8.07
2018-05-08T05:48:44.045Z,7.10
2018-05-08T05:50:45.006Z,7.53
2018-05-08T05:52:45.951Z,7.20
2018-05-08T05:54:46.892Z,8.90
2018-05-08T05:56:47.922Z,8.17
2018-05-08T05:58:49.207Z,8.33
2018-05-08T06:00:50.538Z,7.40
2018-05-08T06:02:51.853Z,7.47
2018-05-08T06:04:52.803Z,7.80
2018-05-08T06:06:53.750Z,10.27
2018-05-08T06:08:55.063Z,6.43
2018-05-08T06:11:03.082Z,10.30
2018-05-08T06:13:04.090Z,10.60
2018-05-08T06:15:05.038Z,6.70
2018-05-08T06:17:05.977Z,7.00
2018-05-08T06:19:06.933Z,6.67
2018-05-08T06:21:08.239Z,7.20
2018-05-08T06:23:09.234Z,7.47
2018-05-08T06:25:10.184Z,18.33
2018-05-08T06:27:11.130Z,11.10
2018-05-08T06:29:12.081Z,17.03
2018-05-08T06:31:14.498Z,11.43
2018-05-08T06:33:15.446Z,7.80
2018-05-08T06:35:16.387Z,6.83
2018-05-08T06:37:17.781Z,5.97
2018-05-08T06:39:19.067Z,6.53
2018-05-08T06:41:20.015Z,5.90
2018-05-08T06:43:20.958Z,5.87
2018-05-08T06:45:21.902Z,5.90
2018-05-08T06:47:23.374Z,6.00
2018-05-08T06:49:24.310Z,6.73
2018-05-08T06:51:25.257Z,5.93
2018-05-08T06:53:26.574Z,5.40
2018-05-08T06:55:27.528Z,6.60
2018-05-08T06:57:28.833Z,6.00
2018-05-08T06:59:29.778Z,5.80
2018-05-08T07:01:30.714Z,6.73
2018-05-08T07:03:31.657Z,6.40
2018-05-08T07:05:32.623Z,5.87
2018-05-08T07:07:33.582Z,6.33
2018-05-08T07:09:34.529Z,5.47
2018-05-08T07:11:35.474Z,6.50
2018-05-08T07:13:36.410Z,5.80
2018-05-08T07:15:37.439Z,5.90
2018-05-08T07:17:38.333Z,6.13
2018-05-08T07:19:39.943Z,5.33
2018-05-08T07:21:40.886Z,5.17
2018-05-08T07:23:42.185Z,5.43
2018-05-08T07:25:44.137Z,5.17
2018-05-08T07:27:45.110Z,5.33
2018-05-08T07:29:46.094Z,5.60
2018-05-08T07:31:47.085Z,5.73
2018-05-08T07:33:48.027Z,8.63
2018-05-08T07:35:49.330Z,6.00
2018-05-08T07:37:51.243Z,5.30
2018-05-08T07:39:52.209Z,5.60
2018-05-08T07:41:53.187Z,5.17
2018-05-08T07:43:54.231Z,5.60
2018-05-08T07:45:55.598Z,5.10
2018-05-08T07:47:56.543Z,4.93
2018-05-08T07:49:57.570Z,5.60
2018-05-08T07:51:58.520Z,5.43
2018-05-08T07:53:59.477Z,5.43
2018-05-08T07:56:00.692Z,5.27
2018-05-08T07:58:01.648Z,5.93
2018-05-08T08:00:02.696Z,5.83
2018-05-08T08:02:03.786Z,5.57
2018-05-08T08:04:04.729Z,4.70
2018-05-08T08:06:05.678Z,4.80
2018-05-08T08:08:06.627Z,5.17
2018-05-08T08:10:07.574Z,5.40
2018-05-08T08:12:08.527Z,4.90
2018-05-08T08:14:09.863Z,5.60
2018-05-08T08:16:10.810Z,5.00
2018-05-08T08:18:11.754Z,5.03
2018-05-08T08:20:12.693Z,4.60
2018-05-08T08:22:13.650Z,4.93
2018-05-08T08:24:14.867Z,5.10
2018-05-08T08:26:15.794Z,4.50
2018-05-08T08:28:17.138Z,4.60
2018-05-08T08:30:18.505Z,4.40
2018-05-08T08:32:19.477Z,4.93
2018-05-08T08:34:20.461Z,4.53
2018-05-08T08:36:21.445Z,5.03
2018-05-08T08:38:22.622Z,4.10
2018-05-08T08:40:23.969Z,4.47
2018-05-08T08:42:25.425Z,4.67
2018-05-08T08:44:26.425Z,4.20
2018-05-08T08:46:27.487Z,4.30
2018-05-08T08:48:28.403Z,4.70
2018-05-08T08:50:29.774Z,4.43
2018-05-08T08:52:30.768Z,3.70
2018-05-08T08:54:31.717Z,4.40
2018-05-08T08:56:32.654Z,5.07
2018-05-08T08:58:33.966Z,4.60
2018-05-08T09:00:34.890Z,7.17
2018-05-08T09:02:35.842Z,5.00
2018-05-08T09:04:36.769Z,4.60
2018-05-08T09:06:37.711Z,5.00
2018-05-08T09:08:38.667Z,4.43
2018-05-08T09:10:40.180Z,3.90
2018-05-08T09:12:41.384Z,3.90
2018-05-08T09:14:42.406Z,4.50
2018-05-08T09:16:43.390Z,3.80
2018-05-08T09:18:44.334Z,4.33
2018-05-08T09:20:45.273Z,3.70
2018-05-08T09:22:46.199Z,3.60
2018-05-08T09:24:47.134Z,4.43
2018-05-08T09:26:48.078Z,3.83
2018-05-08T09:28:49.005Z,3.93
2018-05-08T09:30:49.946Z,4.37
2018-05-08T09:32:50.960Z,3.43
2018-05-08T09:34:52.190Z,3.77
2018-05-08T09:36:53.118Z,3.30
2018-05-08T09:38:54.057Z,3.63
2018-05-08T09:40:55.002Z,3.70
2018-05-08T09:42:56.612Z,3.77
2018-05-08T09:44:57.562Z,5.40
2018-05-08T09:46:58.495Z,3.80
2018-05-08T09:48:59.442Z,4.20
2018-05-08T09:51:00.399Z,3.70
2018-05-08T09:53:01.330Z,4.10
2018-05-08T09:55:02.258Z,3.50
2018-05-08T09:57:03.306Z,3.53
2018-05-08T09:59:04.242Z,3.70
2018-05-08T10:01:05.268Z,3.80
2018-05-08T10:03:06.507Z,3.30
2018-05-08T10:05:07.458Z,4.10
2018-05-08T10:07:08.383Z,3.90
2018-05-08T10:09:09.327Z,3.80
2018-05-08T10:11:10.261Z,3.40
2018-05-08T10:13:11.196Z,3.70
2018-05-08T10:15:12.399Z,3.80
2018-05-08T10:17:13.334Z,3.80
2018-05-08T10:19:14.278Z,3.70
2018-05-08T10:21:15.225Z,4.00
2018-05-08T10:23:16.158Z,3.40
2018-05-08T10:25:17.088Z,4.00
2018-05-08T10:27:18.322Z,3.83
2018-05-08T10:29:20.148Z,3.50
2018-05-08T10:31:21.078Z,3.70
2018-05-08T10:33:22.038Z,3.60
2018-05-08T10:35:22.974Z,3.80
2018-05-08T10:37:24.597Z,4.00
2018-05-08T10:39:25.874Z,3.70
2018-05-08T10:41:26.859Z,3.97
2018-05-08T10:43:27.849Z,3.50
2018-05-08T10:45:28.837Z,3.93
2018-05-08T10:47:29.770Z,5.03
2018-05-08T10:49:30.961Z,3.60
2018-05-08T10:51:32.302Z,3.43
2018-05-08T10:53:33.279Z,3.40
2018-05-08T10:55:34.255Z,3.20
2018-05-08T10:57:35.258Z,3.83
2018-05-08T10:59:36.261Z,3.87
2018-05-08T11:01:37.225Z,3.23
2018-05-08T11:03:38.534Z,3.50
2018-05-08T11:05:39.485Z,3.70
2018-05-08T11:07:40.810Z,3.43
2018-05-08T11:09:41.966Z,4.17
2018-05-08T11:11:43.327Z,3.97
2018-05-08T11:13:44.286Z,4.60
2018-05-08T11:15:45.268Z,3.17
2018-05-08T11:17:46.633Z,2.87
2018-05-08T11:19:47.690Z,4.13
2018-05-08T11:21:48.617Z,3.70
2018-05-08T11:23:49.605Z,3.50
2018-05-08T11:25:50.567Z,3.43
2018-05-08T11:27:51.675Z,3.40
2018-05-08T11:29:52.626Z,3.60
2018-05-08T11:31:53.927Z,3.37
2018-05-08T11:33:57.054Z,3.13
2018-05-08T11:35:58.414Z,3.80
2018-05-08T11:37:59.352Z,3.40
2018-05-08T11:40:00.314Z,3.87
2018-05-08T11:42:01.281Z,3.80
2018-05-08T11:44:02.225Z,3.00
2018-05-08T11:46:10.349Z,3.13
2018-05-08T11:48:11.278Z,3.23
2018-05-08T11:50:12.586Z,3.23
2018-05-08T11:52:13.828Z,3.20
2018-05-08T11:54:14.949Z,3.17
2018-05-08T11:56:15.895Z,3.23
2018-05-08T11:58:16.855Z,3.20
2018-05-08T12:00:18.157Z,3.43
2018-05-08T12:02:19.132Z,3.27
2018-05-08T12:04:20.463Z,3.47
2018-05-08T12:06:21.399Z,3.27
2018-05-08T12:08:22.341Z,3.90
2018-05-08T12:10:23.830Z,2.90
2018-05-08T12:12:24.777Z,2.77
2018-05-08T12:14:25.722Z,3.00
2018-05-08T12:16:26.667Z,3.10
2018-05-08T12:18:27.602Z,2.97
2018-05-08T12:20:28.602Z,3.50
2018-05-08T12:22:29.548Z,3.10
2018-05-08T12:24:30.481Z,3.63
2018-05-08T12:26:31.434Z,2.73
2018-05-08T12:28:32.745Z,4.43
2018-05-08T12:30:33.714Z,3.30
2018-05-08T12:32:36.259Z,3.20
2018-05-08T12:34:37.198Z,3.47
2018-05-08T12:36:38.148Z,3.17
2018-05-08T12:38:39.206Z,3.53
2018-05-08T12:40:40.655Z,3.43
2018-05-08T12:42:41.982Z,3.40
2018-05-08T12:44:42.946Z,2.77
2018-05-08T12:46:44.846Z,2.90
2018-05-08T12:48:45.780Z,2.60
2018-05-08T12:50:46.723Z,3.10
2018-05-08T12:52:47.688Z,3.13
2018-05-08T12:54:48.662Z,3.00
2018-05-08T12:56:49.602Z,3.43
2018-05-08T12:58:50.562Z,2.93
2018-05-08T13:00:51.573Z,3.13
2018-05-08T13:02:52.523Z,4.03
2018-05-08T13:04:53.471Z,3.43
2018-05-08T13:06:54.455Z,3.07
2018-05-08T13:08:55.762Z,3.00
2018-05-08T13:10:56.712Z,3.00
2018-05-08T13:12:58.046Z,3.23
2018-05-08T13:14:58.995Z,3.23
2018-05-08T13:16:59.950Z,3.43
2018-05-08T13:19:00.890Z,3.40
2018-05-08T13:21:11.163Z,4.13
2018-05-08T13:23:12.353Z,3.27
2018-05-08T13:25:13.669Z,3.13
2018-05-08T13:27:14.630Z,3.17
2018-05-08T13:29:15.957Z,3.20
2018-05-08T13:31:16.887Z,3.07
2018-05-08T13:33:17.847Z,3.67
2018-05-08T13:35:19.173Z,2.80
2018-05-08T13:37:20.500Z,3.30
2018-05-08T13:39:22.455Z,3.27
2018-05-08T13:41:23.399Z,2.97
2018-05-08T13:43:24.355Z,3.33
2018-05-08T13:45:25.679Z,2.97
2018-05-08T13:47:26.622Z,3.27
2018-05-08T13:49:28.137Z,3.17
2018-05-08T13:51:29.477Z,3.40
2018-05-08T13:53:30.436Z,3.20
2018-05-08T13:55:31.496Z,3.00
2018-05-08T13:57:32.442Z,3.10
2018-05-08T13:59:33.398Z,3.23
2018-05-08T14:01:34.346Z,2.80
2018-05-08T14:03:35.305Z,2.87
2018-05-08T14:05:36.310Z,3.33
2018-05-08T14:07:37.259Z,3.30
2018-05-08T14:09:38.219Z,3.10
2018-05-08T14:11:39.653Z,3.60
2018-05-08T14:13:40.674Z,3.10
2018-05-08T14:15:41.625Z,3.07
2018-05-08T14:17:43.366Z,3.10
2018-05-08T14:19:44.822Z,2.90
2018-05-08T14:21:45.758Z,2.90
2018-05-08T14:23:46.716Z,3.20
2018-05-08T14:25:47.667Z,3.10
2018-05-08T14:27:48.618Z,3.10
2018-05-08T14:29:49.579Z,2.73
2018-05-08T14:31:50.554Z,3.00
2018-05-08T14:33:51.883Z,3.33
2018-05-08T14:35:53.206Z,3.53
2018-05-08T14:37:54.272Z,3.07
2018-05-08T14:39:55.497Z,3.60
2018-05-08T14:41:56.482Z,3.33
2018-05-08T14:43:59.102Z,3.20
2018-05-08T14:46:00.043Z,2.70
2018-05-08T14:48:01.359Z,3.33
2018-05-08T14:50:02.706Z,3.33
2018-05-08T14:52:04.602Z,3.23
2018-05-08T14:54:07.305Z,2.83
2018-05-08T14:56:08.255Z,2.83
2018-05-08T14:58:09.218Z,2.97
2018-05-08T15:00:10.158Z,3.20
2018-05-08T15:02:11.478Z,2.90
2018-05-08T15:04:12.449Z,3.43
2018-05-08T15:06:13.382Z,3.10
2018-05-08T15:08:14.909Z,2.90
2018-05-08T15:10:16.043Z,3.30
2018-05-08T15:12:17.045Z,3.10
2018-05-08T15:14:18.059Z,3.10
2018-05-08T15:16:19.030Z,2.93
2018-05-08T15:18:20.013Z,3.40
2018-05-08T15:20:21.371Z,3.20
2018-05-08T15:22:22.670Z,4.30
2018-05-08T15:24:23.708Z,3.60
2018-05-08T15:26:24.686Z,3.47
2018-05-08T15:28:25.934Z,3.40
2018-05-08T15:30:26.934Z,3.40
2018-05-08T15:32:35.473Z,3.43
2018-05-08T15:34:36.604Z,3.07
2018-05-08T15:36:38.015Z,3.67
2018-05-08T15:38:39.079Z,3.60
2018-05-08T15:40:40.479Z,3.17
2018-05-08T15:42:41.488Z,3.10
2018-05-08T15:44:42.909Z,3.47
2018-05-08T15:46:44.106Z,3.40
2018-05-08T15:48:45.126Z,3.43
2018-05-08T15:50:46.147Z,3.50
2018-05-08T15:52:47.219Z,3.40
2018-05-08T15:54:48.163Z,3.70
2018-05-08T15:56:49.122Z,3.57
2018-05-08T15:58:50.068Z,4.07
2018-05-08T16:00:51.026Z,3.30
2018-05-08T16:02:51.978Z,3.50
2018-05-08T16:04:52.921Z,3.77
2018-05-08T16:06:53.878Z,3.60
2018-05-08T16:08:55.482Z,3.30
2018-05-08T16:10:56.414Z,3.80
2018-05-08T16:12:57.393Z,3.60
2018-05-08T16:14:58.710Z,3.67
2018-05-08T16:17:00.612Z,3.53
2018-05-08T16:19:01.773Z,4.47
2018-05-08T16:21:02.829Z,3.83
2018-05-08T16:23:03.678Z,3.77
2018-05-08T16:25:04.690Z,3.80
2018-05-08T16:27:05.634Z,3.70
2018-05-08T16:29:06.771Z,3.57
2018-05-08T16:31:07.705Z,3.50
2018-05-08T16:33:08.712Z,3.50
2018-05-08T16:35:09.674Z,3.50
2018-05-08T16:37:10.619Z,3.47
2018-05-08T16:39:11.562Z,3.40
2018-05-08T16:41:12.621Z,3.53
2018-05-08T16:43:13.958Z,4.50
2018-05-08T16:45:15.326Z,3.80
2018-05-08T16:47:16.282Z,5.17
2018-05-08T16:49:17.243Z,3.60
2018-05-08T16:51:18.219Z,3.70
2018-05-08T16:53:19.545Z,3.17
2018-05-08T16:55:20.481Z,3.60
2018-05-08T16:57:21.799Z,3.63
2018-05-08T16:59:22.770Z,3.43
2018-05-08T17:01:24.097Z,4.00
2018-05-08T17:03:25.045Z,3.40
2018-05-08T17:05:27.470Z,3.20
2018-05-08T17:07:28.418Z,3.50
2018-05-08T17:09:32.514Z,4.43
2018-05-08T17:11:33.505Z,3.63
2018-05-08T17:13:34.528Z,3.67
2018-05-08T17:15:35.895Z,3.60
2018-05-08T17:17:37.038Z,3.67
2018-05-08T17:19:37.978Z,3.80
2018-05-08T17:21:38.991Z,3.57
2018-05-08T17:23:41.144Z,3.30
2018-05-08T17:25:42.248Z,3.40
2018-05-08T17:27:43.179Z,3.30
2018-05-08T17:29:44.178Z,3.23
2018-05-08T17:31:45.338Z,3.93
2018-05-08T17:33:46.305Z,3.60
2018-05-08T17:35:47.283Z,3.60
2018-05-08T17:37:48.296Z,3.80
2018-05-08T17:39:49.634Z,3.57
2018-05-08T17:41:51.046Z,3.40
2018-05-08T17:43:52.039Z,3.20
2018-05-08T17:45:53.295Z,3.47
2018-05-08T17:47:54.291Z,3.87
2018-05-08T17:49:55.659Z,3.87
2018-05-08T17:51:56.664Z,3.40
2018-05-08T17:53:58.030Z,3.50
2018-05-08T17:55:59.033Z,4.07
2018-05-08T17:58:00.008Z,3.30
2018-05-08T18:00:00.982Z,3.60
2018-05-08T18:02:01.992Z,3.63
2018-05-08T18:04:03.070Z,3.30
2018-05-08T18:06:04.366Z,3.90
2018-05-08T18:08:05.358Z,3.50
2018-05-08T18:10:06.702Z,3.77
2018-05-08T18:12:08.050Z,3.80
2018-05-08T18:14:09.058Z,3.60
2018-05-08T18:16:10.039Z,4.50
2018-05-08T18:18:11.018Z,3.67
2018-05-08T18:20:12.023Z,3.37
2018-05-08T18:22:13.030Z,3.43
2018-05-08T18:24:14.362Z,3.80
2018-05-08T18:26:15.713Z,3.60
2018-05-08T18:28:16.690Z,3.40
2018-05-08T18:30:17.670Z,3.50
2018-05-08T18:32:18.667Z,3.60
2018-05-08T18:34:19.675Z,4.10
2018-05-08T18:36:20.581Z,3.67
2018-05-08T18:38:21.943Z,3.50
2018-05-08T18:40:22.934Z,3.40
2018-05-08T18:42:23.946Z,3.73
2018-05-08T18:44:24.940Z,3.87
2018-05-08T18:46:25.909Z,4.10
2018-05-08T18:48:26.877Z,3.60
2018-05-08T18:50:27.868Z,3.57
2018-05-08T18:52:28.859Z,5.57
2018-05-08T18:54:29.847Z,4.17
2018-05-08T18:58:38.603Z,3.27
2018-05-08T19:00:45.710Z,3.50
2018-05-08T19:02:46.695Z,3.20
2018-05-08T19:04:47.658Z,3.30
2018-05-08T19:06:48.723Z,3.60
2018-05-08T19:08:49.642Z,3.60
2018-05-08T19:10:56.739Z,3.30
2018-05-08T19:12:57.733Z,3.47
2018-05-08T19:15:04.990Z,3.80
2018-05-08T19:17:06.086Z,3.50
2018-05-08T19:19:13.654Z,4.13
2018-05-08T19:21:14.806Z,3.53
2018-05-08T19:23:16.163Z,3.40
2018-05-08T19:25:17.527Z,3.90
2018-05-08T19:27:18.499Z,3.73
2018-05-08T19:29:25.522Z,4.20
2018-05-08T19:31:26.523Z,3.63
2018-05-08T19:33:27.507Z,3.50
2018-05-08T19:35:34.539Z,3.70
2018-05-08T19:37:41.677Z,3.83
2018-05-08T19:39:42.686Z,3.33
2018-05-08T19:41:43.646Z,4.17
2018-05-08T19:43:44.635Z,4.10
2018-05-08T19:45:46.106Z,3.70
2018-05-08T19:47:47.090Z,4.10
2018-05-08T19:49:48.066Z,3.57
2018-05-08T19:51:49.423Z,3.37
2018-05-08T19:53:50.406Z,3.87
2018-05-08T19:55:51.405Z,3.57
2018-05-08T19:57:52.440Z,3.50
2018-05-08T19:59:53.763Z,3.63
2018-05-08T20:01:54.729Z,3.30
2018-05-08T20:03:55.727Z,5.17
2018-05-08T20:05:57.090Z,4.40
2018-05-08T20:07:58.086Z,3.90
2018-05-08T20:09:59.450Z,3.83
2018-05-08T20:12:00.810Z,4.03
2018-05-08T20:14:01.784Z,6.60
2018-05-08T20:16:03.243Z,16.40
2018-05-08T20:20:11.966Z,4.60
2018-05-08T20:22:12.958Z,4.50
2018-05-08T20:24:13.938Z,4.97
2018-05-08T20:26:14.944Z,4.40
2018-05-08T20:30:23.814Z,4.37
2018-05-08T20:32:24.826Z,4.23
2018-05-08T20:34:26.086Z,4.10
2018-05-08T20:36:27.207Z,4.20
2018-05-08T20:38:28.074Z,4.50
2018-05-08T20:40:29.583Z,4.17
2018-05-08T20:42:30.546Z,4.03
2018-05-08T20:44:31.512Z,4.90
2018-05-08T20:46:32.510Z,4.73
2018-05-08T20:48:33.490Z,4.27
2018-05-08T20:50:34.527Z,4.57
2018-05-08T20:52:35.497Z,4.40
2018-05-08T20:54:36.527Z,4.70
2018-05-08T20:56:37.500Z,5.67
2018-05-08T20:58:38.857Z,5.80
2018-05-08T21:00:40.199Z,4.40
2018-05-08T21:02:41.554Z,5.90
2018-05-08T21:04:42.707Z,6.00
2018-05-08T21:06:43.702Z,5.20
2018-05-08T21:08:45.042Z,6.10
2018-05-08T21:10:46.044Z,4.30
2018-05-08T21:12:47.014Z,4.17
2018-05-08T21:14:48.371Z,4.50
2018-05-08T21:16:49.755Z,4.47
2018-05-08T21:18:50.734Z,3.97
2018-05-08T21:20:51.754Z,4.03
2018-05-08T21:22:52.730Z,4.57
2018-05-08T21:24:53.883Z,4.17
2018-05-08T21:26:54.867Z,4.23
2018-05-08T21:28:58.698Z,4.37
2018-05-08T21:31:06.130Z,4.30
2018-05-08T21:33:07.290Z,4.37
2018-05-08T21:35:08.251Z,4.33
2018-05-08T21:37:09.806Z,3.70
2018-05-08T21:39:11.284Z,4.00
2018-05-08T21:41:12.280Z,4.20
2018-05-08T21:43:13.642Z,3.90
2018-05-08T21:45:14.623Z,3.97
2018-05-08T21:47:15.601Z,3.90
2018-05-08T21:49:16.604Z,4.13
2018-05-08T21:51:17.589Z,4.13
2018-05-08T21:53:18.559Z,3.93
2018-05-08T21:55:19.590Z,4.10
2018-05-08T21:57:20.579Z,4.30
2018-05-08T21:59:21.565Z,4.43
2018-05-08T22:01:22.589Z,4.83
2018-05-08T22:03:23.590Z,4.33
2018-05-08T22:05:24.568Z,3.83
2018-05-08T22:07:25.578Z,4.03
2018-05-08T22:09:26.678Z,3.90
2018-05-08T22:11:28.066Z,4.23
2018-05-08T22:13:29.089Z,4.27
2018-05-08T22:15:30.143Z,4.27
2018-05-08T22:17:31.086Z,4.40
2018-05-08T22:19:32.090Z,5.30
2018-05-08T22:21:33.052Z,4.60
2018-05-08T22:23:34.009Z,4.47
2018-05-08T22:25:34.998Z,4.13
2018-05-08T22:27:35.998Z,4.70
2018-05-08T22:29:37.351Z,4.30
2018-05-08T22:31:38.342Z,3.80
2018-05-08T22:33:39.294Z,4.80
2018-05-08T22:35:40.262Z,4.30
2018-05-08T22:37:41.251Z,4.30
2018-05-08T22:39:42.273Z,4.33
2018-05-08T22:41:43.261Z,4.23
2018-05-08T22:43:44.626Z,4.20
2018-05-08T22:45:45.593Z,4.80
2018-05-08T22:47:46.554Z,4.87
2018-05-08T22:49:47.550Z,4.40
2018-05-08T22:51:48.539Z,4.07
2018-05-08T22:53:49.886Z,4.70
2018-05-08T22:55:52.937Z,4.50
2018-05-08T22:57:53.899Z,3.83
2018-05-08T22:59:55.263Z,3.90
2018-05-08T23:01:56.255Z,4.27
2018-05-08T23:03:57.275Z,4.40
2018-05-08T23:05:58.281Z,4.63
2018-05-08T23:07:59.254Z,4.00
2018-05-08T23:10:00.235Z,4.40
2018-05-08T23:12:01.227Z,4.43
2018-05-08T23:14:02.237Z,4.30
2018-05-08T23:16:03.214Z,4.13
2018-05-08T23:18:04.569Z,4.20
2018-05-08T23:20:06.055Z,3.97
2018-05-08T23:22:07.398Z,4.50
2018-05-08T23:24:08.354Z,4.10
2018-05-08T23:26:09.438Z,4.40
2018-05-08T23:28:10.455Z,4.57
2018-05-08T23:30:11.421Z,4.13
2018-05-08T23:32:12.398Z,4.50
2018-05-08T23:34:13.379Z,4.73
2018-05-08T23:36:14.366Z,4.30
2018-05-08T23:38:15.347Z,4.13
2018-05-08T23:40:16.331Z,4.23
2018-05-08T23:42:17.323Z,4.60
2018-05-08T23:44:18.318Z,4.47
2018-05-08T23:46:19.467Z,4.30
2018-05-08T23:48:20.830Z,4.97
2018-05-08T23:50:22.177Z,4.53
2018-05-08T23:52:23.551Z,4.80
2018-05-08T23:54:24.563Z,4.60
2018-05-08T23:56:25.526Z,4.53
2018-05-08T23:58:26.506Z,4.20
